METAR UND TAF INFORMATION
MDLR 161100Z 00000KT 9999 FEW016 SCT070 24/24 Q1015

 FLUGHAFENKARTE

 RUNWAY INFORMATION
Runway 11 Runway length 9676 ft Runway width 148 ft
Runway elevation 240 ft Runway displaced threshold 0 ft Runway heading 97
Runway 29 Runway length 9676 ft Runway width 148 ft
Runway elevation 217 ft Runway displaced threshold 0 ft Runway heading 277

 AIRPORT FREQUENCIES
Type APP Name LAS AMERIC Frequency 119.3 MHZ
Type TWR Name LA ROMANA Frequency 118.6 MHZ

 AIRPORT NEAR NAVIGATION AIDS
Type VOR-DME Name La Romana Frequency 116200 KHZ
Type NDB Name La Romana Frequency 325 KHZ